createdAt,value
2017-09-23T00:02:09.590Z,37.10
2017-09-23T00:04:38.650Z,37.40
2017-09-23T00:07:07.158Z,38.17
2017-09-23T00:09:35.454Z,40.30
2017-09-23T00:12:03.752Z,44.40
2017-09-23T00:14:32.090Z,35.73
2017-09-23T00:17:00.386Z,36.53
2017-09-23T00:19:28.727Z,38.10
2017-09-23T00:21:57.051Z,34.57
2017-09-23T00:24:25.346Z,33.30
2017-09-23T00:26:53.771Z,33.60
2017-09-23T00:29:22.082Z,34.57
2017-09-23T00:31:50.376Z,35.90
2017-09-23T00:34:18.702Z,32.10
2017-09-23T00:36:47.028Z,28.17
2017-09-23T00:39:15.351Z,30.17
2017-09-23T00:41:44.402Z,27.20
2017-09-23T00:44:12.731Z,27.17
2017-09-23T00:46:41.021Z,31.30
2017-09-23T00:49:09.343Z,34.00
2017-09-23T00:51:37.695Z,35.87
2017-09-23T00:54:06.828Z,34.33
2017-09-23T00:56:35.922Z,33.30
2017-09-23T00:59:04.316Z,32.37
2017-09-23T01:01:33.441Z,31.97
2017-09-23T01:04:02.825Z,32.57
2017-09-23T01:06:31.128Z,30.53
2017-09-23T01:08:59.419Z,29.07
2017-09-23T01:11:27.738Z,31.43
2017-09-23T01:13:56.155Z,28.50
2017-09-23T01:16:24.452Z,27.97
2017-09-23T01:18:52.770Z,32.30
2017-09-23T01:21:21.062Z,31.93
2017-09-23T01:23:49.403Z,28.93
2017-09-23T01:26:17.700Z,28.00
2017-09-23T01:28:46.000Z,28.67
2017-09-23T01:31:14.360Z,28.00
2017-09-23T01:33:42.678Z,34.60
2017-09-23T01:36:11.129Z,31.40
2017-09-23T01:38:39.540Z,35.67
2017-09-23T01:41:07.928Z,31.23
2017-09-23T01:43:36.312Z,31.73
2017-09-23T01:46:04.667Z,30.53
2017-09-23T01:48:33.069Z,34.83
2017-09-23T01:51:02.170Z,33.17
2017-09-23T01:53:31.324Z,31.40
2017-09-23T01:55:59.692Z,32.00
2017-09-23T01:58:28.067Z,33.77
2017-09-23T02:00:56.475Z,35.43
2017-09-23T02:03:24.872Z,37.80
2017-09-23T02:05:53.271Z,48.93
2017-09-23T02:08:21.703Z,46.30
2017-09-23T02:10:50.057Z,42.90
2017-09-23T02:13:18.388Z,46.30
2017-09-23T02:15:48.367Z,49.43
2017-09-23T02:18:16.994Z,52.80
2017-09-23T02:20:45.319Z,52.50
2017-09-23T02:23:13.633Z,50.40
2017-09-23T02:25:41.975Z,52.10
2017-09-23T02:28:10.280Z,51.97
2017-09-23T02:30:38.587Z,43.00
2017-09-23T02:33:07.677Z,42.47
2017-09-23T02:35:35.980Z,46.20
2017-09-23T02:38:05.076Z,43.10
2017-09-23T02:40:33.709Z,40.90
2017-09-23T02:43:02.040Z,38.97
2017-09-23T02:45:30.332Z,39.30
2017-09-23T02:47:58.652Z,37.70
2017-09-23T02:50:27.714Z,37.77
2017-09-23T02:52:56.050Z,35.87
2017-09-23T02:55:24.370Z,40.07
2017-09-23T02:57:52.665Z,39.60
2017-09-23T03:00:20.988Z,44.30
2017-09-23T03:02:49.290Z,46.53
2017-09-23T03:05:17.574Z,46.53
2017-09-23T03:07:45.903Z,36.57
2017-09-23T03:10:14.223Z,40.77
2017-09-23T03:12:42.549Z,40.73
2017-09-23T03:15:10.899Z,41.10
2017-09-23T03:17:39.191Z,31.93
2017-09-23T03:20:07.496Z,33.73
2017-09-23T03:22:35.805Z,34.80
2017-09-23T03:25:04.104Z,32.00
2017-09-23T03:27:32.416Z,35.07
2017-09-23T03:30:00.746Z,37.20
2017-09-23T03:32:29.051Z,33.57
2017-09-23T03:34:57.344Z,39.90
2017-09-23T03:37:25.663Z,36.33
2017-09-23T03:39:54.729Z,38.17
2017-09-23T03:42:23.050Z,41.40
2017-09-23T03:44:52.130Z,43.77
2017-09-23T03:47:20.451Z,43.07
2017-09-23T03:49:49.515Z,45.87
2017-09-23T03:52:17.939Z,43.43
2017-09-23T03:54:46.235Z,43.93
2017-09-23T03:57:15.311Z,44.30
2017-09-23T03:59:43.641Z,41.10
2017-09-23T04:02:12.731Z,42.10
2017-09-23T04:04:41.051Z,38.47
2017-09-23T04:07:09.358Z,38.40
2017-09-23T04:09:37.651Z,36.00
2017-09-23T04:12:05.970Z,37.90
2017-09-23T04:14:34.262Z,36.80
2017-09-23T04:17:02.691Z,36.63
2017-09-23T04:19:31.754Z,34.27
2017-09-23T04:22:00.065Z,32.30
2017-09-23T04:24:28.672Z,31.60
2017-09-23T04:26:57.727Z,35.67
2017-09-23T04:29:26.063Z,38.90
2017-09-23T04:31:54.358Z,36.33
2017-09-23T04:34:23.750Z,35.87
2017-09-23T04:36:53.126Z,34.20
2017-09-23T04:39:21.424Z,38.50
2017-09-23T04:41:49.735Z,36.80
2017-09-23T04:44:18.022Z,33.97
2017-09-23T04:46:46.355Z,33.90
2017-09-23T04:49:15.414Z,35.50
2017-09-23T04:51:43.958Z,37.30
2017-09-23T04:54:13.017Z,47.97
2017-09-23T04:56:41.333Z,38.90
2017-09-23T04:59:09.623Z,39.40
2017-09-23T05:01:38.722Z,38.07
2017-09-23T05:04:07.015Z,42.13
2017-09-23T05:06:35.357Z,43.53
2017-09-23T05:09:03.660Z,45.47
2017-09-23T05:11:32.044Z,46.97
2017-09-23T05:14:00.427Z,48.70
2017-09-23T05:16:28.755Z,47.10
2017-09-23T05:18:57.145Z,47.93
2017-09-23T05:21:25.540Z,43.33
2017-09-23T05:23:54.699Z,40.53
2017-09-23T05:26:23.089Z,37.70
2017-09-23T05:28:51.499Z,35.80
2017-09-23T05:31:19.912Z,34.70
2017-09-23T05:33:48.273Z,36.80
2017-09-23T05:36:16.610Z,36.20
2017-09-23T05:38:44.995Z,34.20
2017-09-23T05:41:14.111Z,34.00
2017-09-23T05:43:42.485Z,31.73
2017-09-23T05:46:10.904Z,30.60
2017-09-23T05:48:40.979Z,30.47
2017-09-23T05:51:09.274Z,33.57
2017-09-23T05:53:37.559Z,34.43
2017-09-23T05:56:05.899Z,38.57
2017-09-23T05:58:34.247Z,44.03
2017-09-23T06:01:02.701Z,41.27
2017-09-23T06:03:31.005Z,41.00
2017-09-23T06:05:59.350Z,37.87
2017-09-23T06:08:27.702Z,39.77
2017-09-23T06:10:56.016Z,35.17
2017-09-23T06:13:24.307Z,39.23
2017-09-23T06:15:52.648Z,46.47
2017-09-23T06:18:20.988Z,47.23
2017-09-23T06:20:49.318Z,48.20
2017-09-23T06:23:17.620Z,46.50
2017-09-23T06:25:45.987Z,54.20
2017-09-23T06:28:15.098Z,49.90
2017-09-23T06:30:44.184Z,53.37
2017-09-23T06:33:12.572Z,60.10
2017-09-23T06:35:40.991Z,44.43
2017-09-23T06:38:10.100Z,47.43
2017-09-23T06:40:39.233Z,54.13
2017-09-23T06:43:07.557Z,62.20
2017-09-23T06:45:35.924Z,72.63
2017-09-23T06:48:04.245Z,81.40
2017-09-23T06:50:32.565Z,68.63
2017-09-23T06:53:01.866Z,45.70
2017-09-23T06:55:30.178Z,50.10
2017-09-23T06:57:59.236Z,44.63
2017-09-23T07:00:27.616Z,39.57
2017-09-23T07:02:55.948Z,46.47
2017-09-23T07:05:25.103Z,48.27
2017-09-23T07:07:53.418Z,51.53
2017-09-23T07:10:21.724Z,51.00
2017-09-23T07:12:50.865Z,52.27
2017-09-23T07:15:19.240Z,47.07
2017-09-23T07:17:48.396Z,53.80
2017-09-23T07:20:16.735Z,54.77
2017-09-23T07:22:45.831Z,61.10
2017-09-23T07:25:14.196Z,63.30
2017-09-23T07:27:42.512Z,55.07
2017-09-23T07:30:11.602Z,47.50
2017-09-23T07:32:39.973Z,57.27
2017-09-23T07:35:08.279Z,44.93
2017-09-23T07:37:36.595Z,53.37
2017-09-23T07:40:05.731Z,52.60
2017-09-23T07:42:34.032Z,55.50
2017-09-23T07:45:02.336Z,52.80
2017-09-23T07:47:30.713Z,45.90
2017-09-23T07:49:59.022Z,48.27
2017-09-23T07:52:27.339Z,50.87
2017-09-23T07:54:55.676Z,42.03
2017-09-23T07:57:23.979Z,38.07
2017-09-23T07:59:52.335Z,35.03
2017-09-23T08:02:21.441Z,35.07
2017-09-23T08:04:50.503Z,36.20
2017-09-23T08:07:18.852Z,35.13
2017-09-23T08:09:47.157Z,35.47
2017-09-23T08:12:15.459Z,33.27
2017-09-23T08:14:43.863Z,35.90
2017-09-23T08:17:12.167Z,31.00
2017-09-23T08:19:40.538Z,36.00
2017-09-23T08:22:08.836Z,36.10
2017-09-23T08:24:37.664Z,35.00
2017-09-23T08:27:06.287Z,37.27
2017-09-23T08:29:34.599Z,38.87
2017-09-23T08:32:02.953Z,33.37
2017-09-23T08:34:31.261Z,35.13
2017-09-23T08:36:59.578Z,35.80
2017-09-23T08:39:27.942Z,35.73
2017-09-23T08:41:56.238Z,35.07
2017-09-23T08:44:24.525Z,30.13
2017-09-23T08:46:52.975Z,33.67
2017-09-23T08:49:21.270Z,31.37
2017-09-23T08:51:49.570Z,35.33
2017-09-23T08:54:17.930Z,34.07
2017-09-23T08:56:46.990Z,34.17
2017-09-23T08:59:15.348Z,34.17
2017-09-23T09:01:44.416Z,30.93
2017-09-23T09:04:12.716Z,35.73
2017-09-23T09:06:41.151Z,32.53
2017-09-23T09:09:09.451Z,34.13
2017-09-23T09:11:37.811Z,32.00
2017-09-23T09:14:06.110Z,36.90
2017-09-23T09:16:34.416Z,36.30
2017-09-23T09:19:02.733Z,34.03
2017-09-23T09:21:31.027Z,32.20
2017-09-23T09:23:59.373Z,35.53
2017-09-23T09:26:27.683Z,33.10
2017-09-23T09:28:55.971Z,31.43
2017-09-23T09:31:24.270Z,32.00
2017-09-23T09:33:52.556Z,34.07
2017-09-23T09:36:20.906Z,32.10
2017-09-23T09:38:49.205Z,36.60
2017-09-23T09:41:18.299Z,36.13
2017-09-23T09:43:46.703Z,37.00
2017-09-23T09:46:15.002Z,36.53
2017-09-23T09:48:43.347Z,36.63
2017-09-23T09:51:11.640Z,33.80
2017-09-23T09:53:39.949Z,32.10
2017-09-23T09:56:08.262Z,31.50
2017-09-23T09:58:36.573Z,30.47
2017-09-23T10:01:04.919Z,30.03
2017-09-23T10:03:33.206Z,31.73
2017-09-23T10:06:01.520Z,29.43
2017-09-23T19:09:00.945Z,93.57
2017-09-23T19:11:29.282Z,95.67
2017-09-23T19:13:58.364Z,92.30
2017-09-23T19:16:26.762Z,90.87
2017-09-23T19:18:55.177Z,92.60
2017-09-23T19:21:23.570Z,91.23
2017-09-23T19:23:52.449Z,95.00
2017-09-23T19:26:20.946Z,96.03
2017-09-23T19:28:50.106Z,90.13
2017-09-23T19:31:18.450Z,93.50
2017-09-23T19:33:47.739Z,92.83
2017-09-23T19:36:16.096Z,90.27
2017-09-23T19:38:45.235Z,90.23
2017-09-23T19:41:13.614Z,90.27
2017-09-23T19:43:42.812Z,88.73
2017-09-23T19:46:11.188Z,92.73
2017-09-23T19:48:39.567Z,90.17
2017-09-23T19:51:07.971Z,87.90
2017-09-23T19:53:36.491Z,89.27
2017-09-23T19:56:04.882Z,95.10
2017-09-23T19:58:33.305Z,89.67
2017-09-23T20:01:01.660Z,90.83
2017-09-23T20:03:30.023Z,92.60
2017-09-23T20:05:58.424Z,91.57
2017-09-23T20:08:26.824Z,90.57
2017-09-23T20:10:55.229Z,87.70
2017-09-23T20:13:23.629Z,87.13
2017-09-23T20:15:52.036Z,88.63
2017-09-23T20:18:21.377Z,84.30
2017-09-23T20:20:49.749Z,88.03
2017-09-23T20:23:18.438Z,85.10
2017-09-23T20:25:46.830Z,83.50
2017-09-23T20:28:15.228Z,86.57
2017-09-23T20:30:43.634Z,88.43
2017-09-23T20:33:12.025Z,87.33
2017-09-23T20:35:40.387Z,87.73
2017-09-23T20:38:08.821Z,90.00
2017-09-23T20:40:37.214Z,97.77
2017-09-23T20:43:05.681Z,95.03
2017-09-23T20:45:34.000Z,95.70
2017-09-23T20:48:02.313Z,99.40
2017-09-23T20:50:31.105Z,100.67
2017-09-23T20:52:59.562Z,101.27
2017-09-23T20:55:27.876Z,101.97
2017-09-23T20:57:56.194Z,99.27
2017-09-23T21:00:25.410Z,99.80
2017-09-23T21:02:53.708Z,106.77
2017-09-23T21:05:22.029Z,110.47
2017-09-23T21:07:51.108Z,106.60
2017-09-23T21:10:19.419Z,105.87
2017-09-23T21:12:47.729Z,98.40
2017-09-23T21:15:16.817Z,97.13
2017-09-23T21:17:45.130Z,96.17
2017-09-23T21:23:13.185Z,91.40
2017-09-23T21:25:41.483Z,103.80
2017-09-23T21:28:09.801Z,98.07
2017-09-23T21:30:38.121Z,93.10
2017-09-23T21:33:07.203Z,90.60
2017-09-23T21:35:35.661Z,95.70
2017-09-23T21:38:03.983Z,102.37
2017-09-23T21:40:32.310Z,101.07
2017-09-23T21:43:00.620Z,94.53
2017-09-23T21:45:28.935Z,92.47
2017-09-23T21:47:57.259Z,89.63
2017-09-23T21:50:26.335Z,89.80
2017-09-23T21:52:54.938Z,87.30
2017-09-23T21:55:23.260Z,88.03
2017-09-23T22:00:30.897Z,90.70
2017-09-23T22:03:13.954Z,84.77
2017-09-23T22:05:42.261Z,77.80
2017-09-23T22:08:10.568Z,77.90
2017-09-23T22:10:39.181Z,74.30
2017-09-23T22:13:07.496Z,77.13
2017-09-23T22:15:35.833Z,85.17
2017-09-23T22:18:04.146Z,82.70
2017-09-23T22:20:32.648Z,86.57
2017-09-23T22:23:00.977Z,83.07
2017-09-23T22:25:29.280Z,82.97
2017-09-23T22:27:57.590Z,89.43
2017-09-23T22:30:26.656Z,85.90
2017-09-23T22:32:55.079Z,91.33
2017-09-23T22:35:23.595Z,91.67
2017-09-23T22:37:51.920Z,86.00
2017-09-23T22:40:20.230Z,84.00
2017-09-23T22:42:48.526Z,82.60
2017-09-23T22:45:16.851Z,84.93
2017-09-23T22:47:45.154Z,76.67
2017-09-23T22:50:13.587Z,75.17
2017-09-23T22:52:41.898Z,79.87
2017-09-23T22:55:10.212Z,77.60
2017-09-23T22:57:38.534Z,79.90
2017-09-23T23:00:06.850Z,76.03
2017-09-23T23:02:35.138Z,83.10
2017-09-23T23:05:03.432Z,83.17
2017-09-23T23:07:31.721Z,80.70
2017-09-23T23:10:00.014Z,83.27
2017-09-23T23:12:29.071Z,81.60
2017-09-23T23:14:57.365Z,79.77
2017-09-23T23:17:25.779Z,79.00
2017-09-23T23:19:54.078Z,78.37
2017-09-23T23:22:23.137Z,79.83
2017-09-23T23:24:52.204Z,80.30
2017-09-23T23:27:21.593Z,84.90
2017-09-23T23:29:49.955Z,86.70
2017-09-23T23:32:19.166Z,83.83
2017-09-23T23:34:47.451Z,80.30
2017-09-23T23:37:15.761Z,83.03
2017-09-23T23:39:45.779Z,81.30
2017-09-23T23:42:14.262Z,81.80
2017-09-23T23:44:43.459Z,79.50
2017-09-23T23:47:11.771Z,82.07
2017-09-23T23:49:40.061Z,88.23
2017-09-23T23:52:08.365Z,81.80
2017-09-23T23:54:36.669Z,84.07
2017-09-23T23:57:04.953Z,86.43
2017-09-23T23:59:33.249Z,91.70
